sensor_id;sensor_type;location;lat;lon;timestamp;P1;durP1;ratioP1;P2;durP2;ratioP2
79638;SDS011;69114;49.108;8.280;2023-05-07T00:01:36;6.93;;;4.07;;
79638;SDS011;69114;49.108;8.280;2023-05-07T00:04:01;5.65;;;3.92;;
79638;SDS011;69114;49.108;8.280;2023-05-07T00:06:28;6.03;;;4.38;;
79638;SDS011;69114;49.108;8.280;2023-05-07T00:08:54;5.45;;;3.78;;
79638;SDS011;69114;49.108;8.280;2023-05-07T00:11:19;4.88;;;3.95;;
79638;SDS011;69114;49.108;8.280;2023-05-07T00:13:45;5.38;;;4.50;;
79638;SDS011;69114;49.108;8.280;2023-05-07T00:16:11;5.32;;;3.75;;
79638;SDS011;69114;49.108;8.280;2023-05-07T00:18:36;5.97;;;4.35;;
79638;SDS011;69114;49.108;8.280;2023-05-07T00:21:01;6.47;;;4.38;;
79638;SDS011;69114;49.108;8.280;2023-05-07T00:23:27;6.17;;;4.60;;
79638;SDS011;69114;49.108;8.280;2023-05-07T00:25:52;5.18;;;3.97;;
79638;SDS011;69114;49.108;8.280;2023-05-07T00:28:17;7.47;;;4.78;;
79638;SDS011;69114;49.108;8.280;2023-05-07T00:30:43;7.50;;;5.03;;
79638;SDS011;69114;49.108;8.280;2023-05-07T00:33:08;6.00;;;4.70;;
79638;SDS011;69114;49.108;8.280;2023-05-07T00:35:33;6.82;;;4.38;;
79638;SDS011;69114;49.108;8.280;2023-05-07T00:37:59;7.13;;;4.65;;
79638;SDS011;69114;49.108;8.280;2023-05-07T00:40:24;6.32;;;4.82;;
79638;SDS011;69114;49.108;8.280;2023-05-07T00:42:49;7.07;;;4.93;;
79638;SDS011;69114;49.108;8.280;2023-05-07T00:45:15;5.50;;;4.53;;
79638;SDS011;69114;49.108;8.280;2023-05-07T00:47:41;6.43;;;4.28;;
79638;SDS011;69114;49.108;8.280;2023-05-07T00:50:08;7.15;;;4.90;;
79638;SDS011;69114;49.108;8.280;2023-05-07T00:52:35;10.63;;;5.00;;
79638;SDS011;69114;49.108;8.280;2023-05-07T00:55:04;7.95;;;4.47;;
79638;SDS011;69114;49.108;8.280;2023-05-07T00:57:32;8.35;;;4.78;;
79638;SDS011;69114;49.108;8.280;2023-05-07T01:00:01;5.65;;;4.53;;
79638;SDS011;69114;49.108;8.280;2023-05-07T01:02:29;6.32;;;4.43;;
79638;SDS011;69114;49.108;8.280;2023-05-07T01:04:54;5.38;;;4.55;;
79638;SDS011;69114;49.108;8.280;2023-05-07T01:07:20;7.43;;;4.82;;
79638;SDS011;69114;49.108;8.280;2023-05-07T01:09:47;6.53;;;4.50;;
79638;SDS011;69114;49.108;8.280;2023-05-07T01:12:12;5.85;;;4.40;;
79638;SDS011;69114;49.108;8.280;2023-05-07T01:14:38;5.80;;;3.92;;
79638;SDS011;69114;49.108;8.280;2023-05-07T01:17:03;9.18;;;5.20;;
79638;SDS011;69114;49.108;8.280;2023-05-07T01:19:29;4.60;;;3.97;;
79638;SDS011;69114;49.108;8.280;2023-05-07T01:21:55;5.40;;;3.88;;
79638;SDS011;69114;49.108;8.280;2023-05-07T01:24:28;6.53;;;3.88;;
79638;SDS011;69114;49.108;8.280;2023-05-07T01:26:54;5.40;;;3.85;;
79638;SDS011;69114;49.108;8.280;2023-05-07T01:29:20;4.93;;;3.92;;
79638;SDS011;69114;49.108;8.280;2023-05-07T01:31:45;6.82;;;4.20;;
79638;SDS011;69114;49.108;8.280;2023-05-07T01:34:12;5.75;;;4.20;;
79638;SDS011;69114;49.108;8.280;2023-05-07T01:36:40;5.53;;;4.15;;
79638;SDS011;69114;49.108;8.280;2023-05-07T01:39:08;7.20;;;4.28;;
79638;SDS011;69114;49.108;8.280;2023-05-07T01:41:35;5.43;;;4.90;;
79638;SDS011;69114;49.108;8.280;2023-05-07T01:44:00;5.82;;;4.20;;
79638;SDS011;69114;49.108;8.280;2023-05-07T01:46:28;4.68;;;3.72;;
79638;SDS011;69114;49.108;8.280;2023-05-07T01:48:54;6.05;;;4.30;;
79638;SDS011;69114;49.108;8.280;2023-05-07T01:51:20;9.68;;;4.80;;
79638;SDS011;69114;49.108;8.280;2023-05-07T01:53:47;7.50;;;4.20;;
79638;SDS011;69114;49.108;8.280;2023-05-07T01:56:15;6.53;;;4.45;;
79638;SDS011;69114;49.108;8.280;2023-05-07T01:58:42;5.53;;;4.32;;
79638;SDS011;69114;49.108;8.280;2023-05-07T02:01:07;6.10;;;4.85;;
79638;SDS011;69114;49.108;8.280;2023-05-07T02:03:32;5.80;;;4.20;;
79638;SDS011;69114;49.108;8.280;2023-05-07T02:05:58;7.55;;;4.50;;
79638;SDS011;69114;49.108;8.280;2023-05-07T02:08:23;5.72;;;4.68;;
79638;SDS011;69114;49.108;8.280;2023-05-07T02:10:48;4.97;;;4.47;;
79638;SDS011;69114;49.108;8.280;2023-05-07T02:13:15;8.98;;;4.60;;
79638;SDS011;69114;49.108;8.280;2023-05-07T02:15:40;5.32;;;4.53;;
79638;SDS011;69114;49.108;8.280;2023-05-07T02:18:06;8.65;;;5.45;;
79638;SDS011;69114;49.108;8.280;2023-05-07T02:20:32;8.32;;;5.28;;
79638;SDS011;69114;49.108;8.280;2023-05-07T02:22:58;7.43;;;5.05;;
79638;SDS011;69114;49.108;8.280;2023-05-07T02:25:23;6.05;;;4.80;;
79638;SDS011;69114;49.108;8.280;2023-05-07T02:27:49;6.10;;;4.97;;
79638;SDS011;69114;49.108;8.280;2023-05-07T02:30:14;5.93;;;5.22;;
79638;SDS011;69114;49.108;8.280;2023-05-07T02:32:40;7.60;;;5.28;;
79638;SDS011;69114;49.108;8.280;2023-05-07T02:35:05;6.22;;;5.13;;
79638;SDS011;69114;49.108;8.280;2023-05-07T02:37:31;6.15;;;5.15;;
79638;SDS011;69114;49.108;8.280;2023-05-07T02:39:56;6.90;;;5.40;;
79638;SDS011;69114;49.108;8.280;2023-05-07T02:42:21;6.95;;;5.55;;
79638;SDS011;69114;49.108;8.280;2023-05-07T02:44:47;9.23;;;5.82;;
79638;SDS011;69114;49.108;8.280;2023-05-07T02:47:13;6.22;;;5.40;;
79638;SDS011;69114;49.108;8.280;2023-05-07T02:49:39;8.00;;;5.00;;
79638;SDS011;69114;49.108;8.280;2023-05-07T02:52:04;8.95;;;5.18;;
79638;SDS011;69114;49.108;8.280;2023-05-07T02:54:30;6.63;;;5.93;;
79638;SDS011;69114;49.108;8.280;2023-05-07T02:56:55;7.68;;;5.97;;
79638;SDS011;69114;49.108;8.280;2023-05-07T02:59:21;7.93;;;5.45;;
79638;SDS011;69114;49.108;8.280;2023-05-07T03:01:46;7.15;;;5.70;;
79638;SDS011;69114;49.108;8.280;2023-05-07T03:04:13;7.80;;;5.60;;
79638;SDS011;69114;49.108;8.280;2023-05-07T03:06:38;7.65;;;5.18;;
79638;SDS011;69114;49.108;8.280;2023-05-07T03:09:03;8.00;;;5.65;;
79638;SDS011;69114;49.108;8.280;2023-05-07T03:11:29;7.80;;;5.63;;
79638;SDS011;69114;49.108;8.280;2023-05-07T03:13:54;6.10;;;5.38;;
79638;SDS011;69114;49.108;8.280;2023-05-07T03:16:20;8.00;;;6.32;;
79638;SDS011;69114;49.108;8.280;2023-05-07T03:18:45;7.75;;;5.70;;
79638;SDS011;69114;49.108;8.280;2023-05-07T03:21:11;7.32;;;5.28;;
79638;SDS011;69114;49.108;8.280;2023-05-07T03:23:36;6.85;;;5.40;;
79638;SDS011;69114;49.108;8.280;2023-05-07T03:26:01;7.43;;;5.47;;
79638;SDS011;69114;49.108;8.280;2023-05-07T03:28:27;5.50;;;5.00;;
79638;SDS011;69114;49.108;8.280;2023-05-07T03:30:52;6.40;;;5.57;;
79638;SDS011;69114;49.108;8.280;2023-05-07T03:33:17;7.00;;;5.38;;
79638;SDS011;69114;49.108;8.280;2023-05-07T03:35:43;6.72;;;5.03;;
79638;SDS011;69114;49.108;8.280;2023-05-07T03:38:08;9.25;;;5.57;;
79638;SDS011;69114;49.108;8.280;2023-05-07T03:40:33;6.13;;;5.30;;
79638;SDS011;69114;49.108;8.280;2023-05-07T03:42:59;6.43;;;5.40;;
79638;SDS011;69114;49.108;8.280;2023-05-07T03:45:25;7.35;;;5.70;;
79638;SDS011;69114;49.108;8.280;2023-05-07T03:47:50;6.68;;;5.20;;
79638;SDS011;69114;49.108;8.280;2023-05-07T03:50:16;7.18;;;5.82;;
79638;SDS011;69114;49.108;8.280;2023-05-07T03:52:41;9.90;;;5.35;;
79638;SDS011;69114;49.108;8.280;2023-05-07T03:55:07;6.40;;;5.28;;
79638;SDS011;69114;49.108;8.280;2023-05-07T03:57:32;6.15;;;5.22;;
79638;SDS011;69114;49.108;8.280;2023-05-07T03:59:58;7.28;;;5.22;;
79638;SDS011;69114;49.108;8.280;2023-05-07T04:02:23;6.85;;;4.70;;
79638;SDS011;69114;49.108;8.280;2023-05-07T04:04:48;6.45;;;5.32;;
79638;SDS011;69114;49.108;8.280;2023-05-07T04:07:14;7.88;;;5.40;;
79638;SDS011;69114;49.108;8.280;2023-05-07T04:09:40;7.50;;;5.10;;
79638;SDS011;69114;49.108;8.280;2023-05-07T04:12:05;8.07;;;5.20;;
79638;SDS011;69114;49.108;8.280;2023-05-07T04:14:31;7.72;;;5.40;;
79638;SDS011;69114;49.108;8.280;2023-05-07T04:16:57;6.35;;;5.13;;
79638;SDS011;69114;49.108;8.280;2023-05-07T04:19:24;8.82;;;5.50;;
79638;SDS011;69114;49.108;8.280;2023-05-07T04:21:49;6.50;;;5.33;;
79638;SDS011;69114;49.108;8.280;2023-05-07T04:24:14;10.20;;;5.80;;
79638;SDS011;69114;49.108;8.280;2023-05-07T04:26:39;9.05;;;5.95;;
79638;SDS011;69114;49.108;8.280;2023-05-07T04:29:05;8.90;;;5.43;;
79638;SDS011;69114;49.108;8.280;2023-05-07T04:31:30;6.13;;;5.28;;
79638;SDS011;69114;49.108;8.280;2023-05-07T04:33:56;6.03;;;5.30;;
79638;SDS011;69114;49.108;8.280;2023-05-07T04:36:22;6.53;;;5.13;;
79638;SDS011;69114;49.108;8.280;2023-05-07T04:38:47;5.95;;;4.88;;
79638;SDS011;69114;49.108;8.280;2023-05-07T04:41:13;6.88;;;4.68;;
79638;SDS011;69114;49.108;8.280;2023-05-07T04:43:38;6.13;;;4.82;;
79638;SDS011;69114;49.108;8.280;2023-05-07T04:46:04;5.93;;;4.82;;
79638;SDS011;69114;49.108;8.280;2023-05-07T04:48:29;6.57;;;4.78;;
79638;SDS011;69114;49.108;8.280;2023-05-07T04:50:55;5.80;;;4.60;;
79638;SDS011;69114;49.108;8.280;2023-05-07T04:53:20;7.10;;;5.03;;
79638;SDS011;69114;49.108;8.280;2023-05-07T04:55:46;6.43;;;4.60;;
79638;SDS011;69114;49.108;8.280;2023-05-07T04:58:12;7.13;;;5.07;;
79638;SDS011;69114;49.108;8.280;2023-05-07T05:00:37;6.55;;;5.10;;
79638;SDS011;69114;49.108;8.280;2023-05-07T05:03:04;6.97;;;4.82;;
79638;SDS011;69114;49.108;8.280;2023-05-07T05:05:30;7.25;;;4.90;;
79638;SDS011;69114;49.108;8.280;2023-05-07T05:07:55;7.70;;;4.95;;
79638;SDS011;69114;49.108;8.280;2023-05-07T05:10:21;6.00;;;4.78;;
79638;SDS011;69114;49.108;8.280;2023-05-07T05:12:47;8.70;;;4.80;;
79638;SDS011;69114;49.108;8.280;2023-05-07T05:15:12;7.60;;;5.20;;
79638;SDS011;69114;49.108;8.280;2023-05-07T05:17:38;7.47;;;4.90;;
79638;SDS011;69114;49.108;8.280;2023-05-07T05:20:04;5.78;;;4.55;;
79638;SDS011;69114;49.108;8.280;2023-05-07T05:22:30;8.38;;;5.03;;
79638;SDS011;69114;49.108;8.280;2023-05-07T05:24:56;7.18;;;4.70;;
79638;SDS011;69114;49.108;8.280;2023-05-07T05:27:22;5.57;;;4.35;;
79638;SDS011;69114;49.108;8.280;2023-05-07T05:29:47;6.97;;;5.25;;
79638;SDS011;69114;49.108;8.280;2023-05-07T05:32:12;6.60;;;5.07;;
79638;SDS011;69114;49.108;8.280;2023-05-07T05:34:38;6.05;;;4.80;;
79638;SDS011;69114;49.108;8.280;2023-05-07T05:37:03;5.85;;;4.68;;
79638;SDS011;69114;49.108;8.280;2023-05-07T05:39:28;8.75;;;5.63;;
79638;SDS011;69114;49.108;8.280;2023-05-07T05:41:54;6.45;;;5.07;;
79638;SDS011;69114;49.108;8.280;2023-05-07T05:44:19;5.18;;;4.15;;
79638;SDS011;69114;49.108;8.280;2023-05-07T05:46:45;6.60;;;4.90;;
79638;SDS011;69114;49.108;8.280;2023-05-07T05:49:10;6.47;;;5.07;;
79638;SDS011;69114;49.108;8.280;2023-05-07T05:51:35;6.15;;;5.18;;
79638;SDS011;69114;49.108;8.280;2023-05-07T05:54:01;8.45;;;5.05;;
79638;SDS011;69114;49.108;8.280;2023-05-07T05:56:26;5.82;;;5.18;;
79638;SDS011;69114;49.108;8.280;2023-05-07T05:58:52;5.32;;;4.53;;
79638;SDS011;69114;49.108;8.280;2023-05-07T06:01:17;6.22;;;5.30;;
79638;SDS011;69114;49.108;8.280;2023-05-07T06:03:43;6.55;;;4.90;;
79638;SDS011;69114;49.108;8.280;2023-05-07T06:06:09;6.97;;;4.80;;
79638;SDS011;69114;49.108;8.280;2023-05-07T06:08:39;7.97;;;5.68;;
79638;SDS011;69114;49.108;8.280;2023-05-07T06:11:04;7.43;;;5.00;;
79638;SDS011;69114;49.108;8.280;2023-05-07T06:13:30;6.27;;;5.00;;
79638;SDS011;69114;49.108;8.280;2023-05-07T06:15:55;6.75;;;4.85;;
79638;SDS011;69114;49.108;8.280;2023-05-07T06:18:20;6.57;;;5.00;;
79638;SDS011;69114;49.108;8.280;2023-05-07T06:20:46;6.88;;;4.93;;
79638;SDS011;69114;49.108;8.280;2023-05-07T06:23:11;6.22;;;4.78;;
79638;SDS011;69114;49.108;8.280;2023-05-07T06:25:36;9.90;;;5.03;;
79638;SDS011;69114;49.108;8.280;2023-05-07T06:28:02;6.07;;;4.90;;
79638;SDS011;69114;49.108;8.280;2023-05-07T06:30:27;6.50;;;4.57;;
79638;SDS011;69114;49.108;8.280;2023-05-07T06:32:52;6.33;;;4.10;;
79638;SDS011;69114;49.108;8.280;2023-05-07T06:35:18;4.93;;;3.93;;
79638;SDS011;69114;49.108;8.280;2023-05-07T06:37:44;6.38;;;3.90;;
79638;SDS011;69114;49.108;8.280;2023-05-07T06:40:09;5.55;;;3.80;;
79638;SDS011;69114;49.108;8.280;2023-05-07T06:42:38;4.53;;;3.80;;
79638;SDS011;69114;49.108;8.280;2023-05-07T06:45:04;4.78;;;3.80;;
79638;SDS011;69114;49.108;8.280;2023-05-07T06:47:30;4.57;;;3.55;;
79638;SDS011;69114;49.108;8.280;2023-05-07T06:49:55;6.17;;;3.73;;
79638;SDS011;69114;49.108;8.280;2023-05-07T06:52:20;5.22;;;3.55;;
79638;SDS011;69114;49.108;8.280;2023-05-07T06:54:46;5.35;;;3.67;;
79638;SDS011;69114;49.108;8.280;2023-05-07T06:57:11;4.75;;;3.33;;
79638;SDS011;69114;49.108;8.280;2023-05-07T06:59:36;5.30;;;3.60;;
79638;SDS011;69114;49.108;8.280;2023-05-07T07:02:02;4.82;;;3.42;;
79638;SDS011;69114;49.108;8.280;2023-05-07T07:04:27;6.32;;;3.40;;
79638;SDS011;69114;49.108;8.280;2023-05-07T07:06:53;4.45;;;3.53;;
79638;SDS011;69114;49.108;8.280;2023-05-07T07:09:19;5.10;;;3.60;;
79638;SDS011;69114;49.108;8.280;2023-05-07T07:11:44;4.03;;;3.20;;
79638;SDS011;69114;49.108;8.280;2023-05-07T07:14:09;3.93;;;3.13;;
79638;SDS011;69114;49.108;8.280;2023-05-07T07:16:35;4.68;;;3.50;;
79638;SDS011;69114;49.108;8.280;2023-05-07T07:19:00;3.92;;;3.50;;
79638;SDS011;69114;49.108;8.280;2023-05-07T07:21:25;8.60;;;4.15;;
79638;SDS011;69114;49.108;8.280;2023-05-07T07:23:51;4.63;;;3.60;;
79638;SDS011;69114;49.108;8.280;2023-05-07T07:26:17;6.10;;;3.23;;
79638;SDS011;69114;49.108;8.280;2023-05-07T07:28:43;5.65;;;4.18;;
79638;SDS011;69114;49.108;8.280;2023-05-07T07:31:09;5.20;;;3.53;;
79638;SDS011;69114;49.108;8.280;2023-05-07T07:33:34;6.28;;;3.40;;
79638;SDS011;69114;49.108;8.280;2023-05-07T07:36:00;4.18;;;3.50;;
79638;SDS011;69114;49.108;8.280;2023-05-07T07:38:25;3.97;;;3.07;;
79638;SDS011;69114;49.108;8.280;2023-05-07T07:40:50;3.95;;;3.33;;
79638;SDS011;69114;49.108;8.280;2023-05-07T07:43:16;4.07;;;3.60;;
79638;SDS011;69114;49.108;8.280;2023-05-07T07:45:41;5.13;;;3.65;;
79638;SDS011;69114;49.108;8.280;2023-05-07T07:48:06;4.00;;;3.50;;
79638;SDS011;69114;49.108;8.280;2023-05-07T07:50:32;4.65;;;3.33;;
79638;SDS011;69114;49.108;8.280;2023-05-07T07:52:57;3.40;;;3.07;;
79638;SDS011;69114;49.108;8.280;2023-05-07T07:55:22;4.95;;;4.05;;
79638;SDS011;69114;49.108;8.280;2023-05-07T07:57:49;4.97;;;2.88;;
79638;SDS011;69114;49.108;8.280;2023-05-07T08:00:14;4.30;;;3.50;;
79638;SDS011;69114;49.108;8.280;2023-05-07T08:02:41;4.63;;;3.70;;
79638;SDS011;69114;49.108;8.280;2023-05-07T08:05:06;4.22;;;3.80;;
79638;SDS011;69114;49.108;8.280;2023-05-07T08:07:32;5.03;;;3.80;;
79638;SDS011;69114;49.108;8.280;2023-05-07T08:09:58;5.72;;;3.60;;
79638;SDS011;69114;49.108;8.280;2023-05-07T08:12:23;4.43;;;3.30;;
79638;SDS011;69114;49.108;8.280;2023-05-07T08:14:48;4.55;;;3.45;;
79638;SDS011;69114;49.108;8.280;2023-05-07T08:17:14;4.70;;;3.75;;
79638;SDS011;69114;49.108;8.280;2023-05-07T08:19:41;4.80;;;3.72;;
79638;SDS011;69114;49.108;8.280;2023-05-07T08:22:06;3.92;;;3.53;;
79638;SDS011;69114;49.108;8.280;2023-05-07T08:24:31;5.13;;;3.70;;
79638;SDS011;69114;49.108;8.280;2023-05-07T08:26:57;4.55;;;3.28;;
79638;SDS011;69114;49.108;8.280;2023-05-07T08:29:22;4.40;;;3.45;;
79638;SDS011;69114;49.108;8.280;2023-05-07T08:31:48;4.30;;;3.83;;
79638;SDS011;69114;49.108;8.280;2023-05-07T08:34:13;5.38;;;3.55;;
79638;SDS011;69114;49.108;8.280;2023-05-07T08:36:38;3.85;;;3.45;;
79638;SDS011;69114;49.108;8.280;2023-05-07T08:39:04;4.30;;;3.47;;
79638;SDS011;69114;49.108;8.280;2023-05-07T08:41:29;6.43;;;3.38;;
79638;SDS011;69114;49.108;8.280;2023-05-07T08:43:55;3.97;;;3.22;;
79638;SDS011;69114;49.108;8.280;2023-05-07T08:46:23;3.88;;;3.08;;
79638;SDS011;69114;49.108;8.280;2023-05-07T08:48:50;5.18;;;4.18;;
79638;SDS011;69114;49.108;8.280;2023-05-07T08:51:20;4.43;;;3.33;;
79638;SDS011;69114;49.108;8.280;2023-05-07T08:53:47;6.00;;;3.47;;
79638;SDS011;69114;49.108;8.280;2023-05-07T08:56:13;4.30;;;3.35;;
79638;SDS011;69114;49.108;8.280;2023-05-07T08:58:40;4.50;;;3.58;;
79638;SDS011;69114;49.108;8.280;2023-05-07T09:01:10;5.10;;;3.60;;
79638;SDS011;69114;49.108;8.280;2023-05-07T09:03:38;5.15;;;3.75;;
79638;SDS011;69114;49.108;8.280;2023-05-07T09:06:05;4.45;;;3.25;;
79638;SDS011;69114;49.108;8.280;2023-05-07T09:08:32;3.47;;;3.15;;
79638;SDS011;69114;49.108;8.280;2023-05-07T09:10:58;4.32;;;3.25;;
79638;SDS011;69114;49.108;8.280;2023-05-07T09:13:23;4.63;;;3.80;;
79638;SDS011;69114;49.108;8.280;2023-05-07T09:15:58;5.20;;;4.00;;
79638;SDS011;69114;49.108;8.280;2023-05-07T09:18:34;4.25;;;3.40;;
79638;SDS011;69114;49.108;8.280;2023-05-07T09:20:59;4.03;;;3.63;;
79638;SDS011;69114;49.108;8.280;2023-05-07T09:23:25;3.75;;;3.35;;
79638;SDS011;69114;49.108;8.280;2023-05-07T09:25:50;5.30;;;3.30;;
79638;SDS011;69114;49.108;8.280;2023-05-07T09:28:15;4.45;;;3.42;;
79638;SDS011;69114;49.108;8.280;2023-05-07T09:30:41;3.40;;;3.10;;
79638;SDS011;69114;49.108;8.280;2023-05-07T09:33:16;4.63;;;3.40;;
79638;SDS011;69114;49.108;8.280;2023-05-07T09:35:42;4.82;;;3.47;;
79638;SDS011;69114;49.108;8.280;2023-05-07T09:38:07;4.88;;;4.22;;
79638;SDS011;69114;49.108;8.280;2023-05-07T09:40:33;4.82;;;3.60;;
79638;SDS011;69114;49.108;8.280;2023-05-07T09:43:08;3.90;;;3.20;;
79638;SDS011;69114;49.108;8.280;2023-05-07T09:45:34;4.10;;;3.45;;
79638;SDS011;69114;49.108;8.280;2023-05-07T09:48:01;4.22;;;3.83;;
79638;SDS011;69114;49.108;8.280;2023-05-07T09:50:32;7.22;;;3.70;;
79638;SDS011;69114;49.108;8.280;2023-05-07T09:53:01;4.03;;;3.63;;
79638;SDS011;69114;49.108;8.280;2023-05-07T09:55:28;4.47;;;4.05;;
79638;SDS011;69114;49.108;8.280;2023-05-07T09:57:54;4.38;;;3.58;;
79638;SDS011;69114;49.108;8.280;2023-05-07T10:00:21;4.57;;;3.65;;
79638;SDS011;69114;49.108;8.280;2023-05-07T10:02:48;4.47;;;3.60;;
79638;SDS011;69114;49.108;8.280;2023-05-07T10:05:16;5.10;;;4.30;;
79638;SDS011;69114;49.108;8.280;2023-05-07T10:07:43;6.03;;;4.40;;
79638;SDS011;69114;49.108;8.280;2023-05-07T10:10:09;6.03;;;3.90;;
79638;SDS011;69114;49.108;8.280;2023-05-07T10:12:35;6.00;;;3.83;;
79638;SDS011;69114;49.108;8.280;2023-05-07T10:15:08;6.68;;;3.83;;
79638;SDS011;69114;49.108;8.280;2023-05-07T10:17:36;5.68;;;3.58;;
79638;SDS011;69114;49.108;8.280;2023-05-07T10:20:03;4.80;;;3.63;;
79638;SDS011;69114;49.108;8.280;2023-05-07T10:22:30;6.93;;;3.90;;
79638;SDS011;69114;49.108;8.280;2023-05-07T10:25:02;6.65;;;3.85;;
79638;SDS011;69114;49.108;8.280;2023-05-07T10:27:30;5.00;;;3.42;;
79638;SDS011;69114;49.108;8.280;2023-05-07T10:32:51;4.05;;;3.63;;
79638;SDS011;69114;49.108;8.280;2023-05-07T10:35:24;5.90;;;4.05;;
79638;SDS011;69114;49.108;8.280;2023-05-07T10:37:54;4.43;;;3.90;;
79638;SDS011;69114;49.108;8.280;2023-05-07T10:40:20;4.90;;;3.53;;
79638;SDS011;69114;49.108;8.280;2023-05-07T10:45:24;4.80;;;3.08;;
79638;SDS011;69114;49.108;8.280;2023-05-07T10:48:09;5.28;;;3.72;;
79638;SDS011;69114;49.108;8.280;2023-05-07T10:50:39;4.43;;;3.25;;
79638;SDS011;69114;49.108;8.280;2023-05-07T10:55:44;4.60;;;3.40;;
79638;SDS011;69114;49.108;8.280;2023-05-07T10:58:25;3.83;;;3.17;;
79638;SDS011;69114;49.108;8.280;2023-05-07T11:00:56;4.82;;;3.58;;
79638;SDS011;69114;49.108;8.280;2023-05-07T11:03:22;5.55;;;3.72;;
79638;SDS011;69114;49.108;8.280;2023-05-07T11:05:48;4.63;;;3.58;;
79638;SDS011;69114;49.108;8.280;2023-05-07T11:11:20;3.63;;;3.25;;
79638;SDS011;69114;49.108;8.280;2023-05-07T11:14:11;3.75;;;3.38;;
79638;SDS011;69114;49.108;8.280;2023-05-07T11:16:37;5.15;;;3.47;;
79638;SDS011;69114;49.108;8.280;2023-05-07T11:19:03;4.40;;;3.63;;
79638;SDS011;69114;49.108;8.280;2023-05-07T11:21:39;5.00;;;3.75;;
79638;SDS011;69114;49.108;8.280;2023-05-07T11:24:06;5.55;;;3.20;;
79638;SDS011;69114;49.108;8.280;2023-05-07T11:26:48;4.43;;;3.10;;
79638;SDS011;69114;49.108;8.280;2023-05-07T11:29:18;5.95;;;3.28;;
79638;SDS011;69114;49.108;8.280;2023-05-07T11:31:48;3.90;;;3.30;;
79638;SDS011;69114;49.108;8.280;2023-05-07T11:34:23;5.75;;;3.58;;
79638;SDS011;69114;49.108;8.280;2023-05-07T11:36:50;5.13;;;3.65;;
79638;SDS011;69114;49.108;8.280;2023-05-07T11:39:26;4.00;;;3.60;;
79638;SDS011;69114;49.108;8.280;2023-05-07T11:41:52;3.67;;;3.28;;
79638;SDS011;69114;49.108;8.280;2023-05-07T11:44:18;4.68;;;3.58;;
79638;SDS011;69114;49.108;8.280;2023-05-07T11:46:43;5.50;;;3.42;;
79638;SDS011;69114;49.108;8.280;2023-05-07T11:49:10;3.53;;;3.17;;
79638;SDS011;69114;49.108;8.280;2023-05-07T11:51:35;4.82;;;3.90;;
79638;SDS011;69114;49.108;8.280;2023-05-07T11:54:03;8.20;;;4.20;;
79638;SDS011;69114;49.108;8.280;2023-05-07T11:56:31;5.05;;;3.03;;
79638;SDS011;69114;49.108;8.280;2023-05-07T11:59:00;4.05;;;3.20;;
79638;SDS011;69114;49.108;8.280;2023-05-07T12:01:25;3.53;;;3.22;;
79638;SDS011;69114;49.108;8.280;2023-05-07T12:03:51;3.60;;;3.15;;
79638;SDS011;69114;49.108;8.280;2023-05-07T12:06:16;4.63;;;3.28;;
79638;SDS011;69114;49.108;8.280;2023-05-07T12:08:42;3.28;;;2.90;;
79638;SDS011;69114;49.108;8.280;2023-05-07T12:11:09;4.43;;;3.20;;
79638;SDS011;69114;49.108;8.280;2023-05-07T12:13:40;5.35;;;3.15;;
79638;SDS011;69114;49.108;8.280;2023-05-07T12:16:06;4.75;;;3.40;;
79638;SDS011;69114;49.108;8.280;2023-05-07T12:18:32;4.22;;;3.35;;
79638;SDS011;69114;49.108;8.280;2023-05-07T12:20:59;4.15;;;3.28;;
79638;SDS011;69114;49.108;8.280;2023-05-07T12:23:25;3.50;;;2.97;;
79638;SDS011;69114;49.108;8.280;2023-05-07T12:25:50;5.80;;;3.42;;
79638;SDS011;69114;49.108;8.280;2023-05-07T12:28:16;5.43;;;3.58;;
79638;SDS011;69114;49.108;8.280;2023-05-07T12:30:43;3.70;;;3.17;;
79638;SDS011;69114;49.108;8.280;2023-05-07T12:33:10;4.55;;;3.70;;
79638;SDS011;69114;49.108;8.280;2023-05-07T12:35:37;3.88;;;3.47;;
79638;SDS011;69114;49.108;8.280;2023-05-07T12:38:07;4.75;;;3.78;;
79638;SDS011;69114;49.108;8.280;2023-05-07T12:40:37;5.20;;;3.95;;
79638;SDS011;69114;49.108;8.280;2023-05-07T12:43:04;3.95;;;3.55;;
79638;SDS011;69114;49.108;8.280;2023-05-07T12:45:29;4.57;;;3.75;;
79638;SDS011;69114;49.108;8.280;2023-05-07T12:47:54;3.88;;;3.38;;
79638;SDS011;69114;49.108;8.280;2023-05-07T12:50:20;4.22;;;3.78;;
79638;SDS011;69114;49.108;8.280;2023-05-07T12:52:48;4.90;;;3.47;;
79638;SDS011;69114;49.108;8.280;2023-05-07T12:55:14;4.07;;;3.58;;
79638;SDS011;69114;49.108;8.280;2023-05-07T12:57:42;5.88;;;3.60;;
79638;SDS011;69114;49.108;8.280;2023-05-07T13:00:10;4.05;;;3.33;;
79638;SDS011;69114;49.108;8.280;2023-05-07T13:02:39;3.70;;;3.08;;
79638;SDS011;69114;49.108;8.280;2023-05-07T13:05:07;4.57;;;4.03;;
79638;SDS011;69114;49.108;8.280;2023-05-07T13:07:33;3.85;;;3.20;;
79638;SDS011;69114;49.108;8.280;2023-05-07T13:09:58;4.30;;;3.65;;
79638;SDS011;69114;49.108;8.280;2023-05-07T13:12:23;4.28;;;2.92;;
79638;SDS011;69114;49.108;8.280;2023-05-07T13:14:49;6.05;;;3.47;;
79638;SDS011;69114;49.108;8.280;2023-05-07T13:17:14;5.13;;;3.42;;
79638;SDS011;69114;49.108;8.280;2023-05-07T13:19:40;4.57;;;3.20;;
79638;SDS011;69114;49.108;8.280;2023-05-07T13:22:05;3.53;;;3.10;;
79638;SDS011;69114;49.108;8.280;2023-05-07T13:24:30;4.43;;;3.00;;
79638;SDS011;69114;49.108;8.280;2023-05-07T13:26:56;3.50;;;3.10;;
79638;SDS011;69114;49.108;8.280;2023-05-07T13:29:21;3.47;;;3.17;;
79638;SDS011;69114;49.108;8.280;2023-05-07T13:31:53;5.03;;;3.13;;
79638;SDS011;69114;49.108;8.280;2023-05-07T13:34:19;4.93;;;3.60;;
79638;SDS011;69114;49.108;8.280;2023-05-07T13:36:45;6.90;;;3.83;;
79638;SDS011;69114;49.108;8.280;2023-05-07T13:39:10;3.73;;;3.33;;
79638;SDS011;69114;49.108;8.280;2023-05-07T13:41:35;5.28;;;4.78;;
79638;SDS011;69114;49.108;8.280;2023-05-07T13:44:01;6.07;;;5.30;;
79638;SDS011;69114;49.108;8.280;2023-05-07T13:46:26;6.13;;;5.53;;
79638;SDS011;69114;49.108;8.280;2023-05-07T13:48:51;6.53;;;5.03;;
79638;SDS011;69114;49.108;8.280;2023-05-07T13:51:17;6.80;;;5.43;;
79638;SDS011;69114;49.108;8.280;2023-05-07T13:53:43;6.40;;;4.80;;
79638;SDS011;69114;49.108;8.280;2023-05-07T13:56:08;7.63;;;5.25;;
79638;SDS011;69114;49.108;8.280;2023-05-07T13:58:33;5.80;;;5.20;;
79638;SDS011;69114;49.108;8.280;2023-05-07T14:01:00;6.82;;;5.63;;
79638;SDS011;69114;49.108;8.280;2023-05-07T14:03:25;9.85;;;7.63;;
79638;SDS011;69114;49.108;8.280;2023-05-07T14:05:51;6.85;;;5.95;;
79638;SDS011;69114;49.108;8.280;2023-05-07T14:08:16;6.78;;;5.07;;
79638;SDS011;69114;49.108;8.280;2023-05-07T14:10:44;6.30;;;5.20;;
79638;SDS011;69114;49.108;8.280;2023-05-07T14:13:11;7.00;;;5.75;;
79638;SDS011;69114;49.108;8.280;2023-05-07T14:15:36;11.02;;;6.15;;
79638;SDS011;69114;49.108;8.280;2023-05-07T14:18:02;7.32;;;6.20;;
79638;SDS011;69114;49.108;8.280;2023-05-07T14:20:27;6.55;;;5.43;;
79638;SDS011;69114;49.108;8.280;2023-05-07T14:22:53;6.57;;;4.57;;
79638;SDS011;69114;49.108;8.280;2023-05-07T14:25:18;6.27;;;5.00;;
79638;SDS011;69114;49.108;8.280;2023-05-07T14:27:43;6.57;;;4.80;;
79638;SDS011;69114;49.108;8.280;2023-05-07T14:30:09;7.68;;;5.50;;
79638;SDS011;69114;49.108;8.280;2023-05-07T14:32:35;6.32;;;4.93;;
79638;SDS011;69114;49.108;8.280;2023-05-07T14:35:00;5.65;;;4.82;;
79638;SDS011;69114;49.108;8.280;2023-05-07T14:37:26;7.25;;;5.57;;
79638;SDS011;69114;49.108;8.280;2023-05-07T14:39:51;6.75;;;5.75;;
79638;SDS011;69114;49.108;8.280;2023-05-07T14:42:16;7.57;;;5.97;;
79638;SDS011;69114;49.108;8.280;2023-05-07T14:44:42;6.97;;;6.28;;
79638;SDS011;69114;49.108;8.280;2023-05-07T14:47:07;7.72;;;5.18;;
79638;SDS011;69114;49.108;8.280;2023-05-07T14:49:33;8.90;;;5.60;;
79638;SDS011;69114;49.108;8.280;2023-05-07T14:51:59;14.07;;;5.35;;
79638;SDS011;69114;49.108;8.280;2023-05-07T14:54:25;5.00;;;3.97;;